sensor_id;sensor_type;location;lat;lon;timestamp;P1;durP1;ratioP1;P2;durP2;ratioP2
71174;SDS011;58876;51.994;4.472;2022-12-13T00:01:54;881.22;;;881.22;;
71174;SDS011;58876;51.994;4.472;2022-12-13T00:04:20;875.38;;;875.38;;
71174;SDS011;58876;51.994;4.472;2022-12-13T00:06:47;826.45;;;826.45;;
71174;SDS011;58876;51.994;4.472;2022-12-13T00:09:14;854.76;;;854.76;;
71174;SDS011;58876;51.994;4.472;2022-12-13T00:11:42;829.16;;;829.16;;
71174;SDS011;58876;51.994;4.472;2022-12-13T00:14:08;839.43;;;839.43;;
71174;SDS011;58876;51.994;4.472;2022-12-13T00:16:35;926.88;;;926.88;;
71174;SDS011;58876;51.994;4.472;2022-12-13T00:19:01;978.54;;;978.54;;
71174;SDS011;58876;51.994;4.472;2022-12-13T00:21:27;848.60;;;848.60;;
71174;SDS011;58876;51.994;4.472;2022-12-13T00:23:55;838.85;;;838.85;;
71174;SDS011;58876;51.994;4.472;2022-12-13T00:26:23;851.66;;;851.66;;
71174;SDS011;58876;51.994;4.472;2022-12-13T00:28:51;833.75;;;833.75;;
71174;SDS011;58876;51.994;4.472;2022-12-13T00:31:18;815.28;;;815.28;;
71174;SDS011;58876;51.994;4.472;2022-12-13T00:33:46;843.63;;;843.63;;
71174;SDS011;58876;51.994;4.472;2022-12-13T00:36:11;753.16;;;753.16;;
71174;SDS011;58876;51.994;4.472;2022-12-13T00:38:38;756.50;;;756.50;;
71174;SDS011;58876;51.994;4.472;2022-12-13T00:41:13;775.24;;;775.24;;
71174;SDS011;58876;51.994;4.472;2022-12-13T00:43:44;904.60;;;904.60;;
71174;SDS011;58876;51.994;4.472;2022-12-13T00:46:12;907.67;;;907.67;;
71174;SDS011;58876;51.994;4.472;2022-12-13T00:48:39;932.76;;;932.76;;
71174;SDS011;58876;51.994;4.472;2022-12-13T00:51:09;1003.73;;;1003.73;;
71174;SDS011;58876;51.994;4.472;2022-12-13T00:53:36;1033.68;;;1033.68;;
71174;SDS011;58876;51.994;4.472;2022-12-13T00:56:02;1109.47;;;1109.47;;
71174;SDS011;58876;51.994;4.472;2022-12-13T00:58:28;1114.18;;;1114.18;;
71174;SDS011;58876;51.994;4.472;2022-12-13T01:01:01;1134.80;;;1134.80;;
71174;SDS011;58876;51.994;4.472;2022-12-13T01:03:31;1119.71;;;1119.71;;
71174;SDS011;58876;51.994;4.472;2022-12-13T01:05:57;937.18;;;937.18;;
71174;SDS011;58876;51.994;4.472;2022-12-13T01:08:24;1013.62;;;1013.62;;
71174;SDS011;58876;51.994;4.472;2022-12-13T01:10:51;958.30;;;958.30;;
71174;SDS011;58876;51.994;4.472;2022-12-13T01:13:17;977.30;;;977.30;;
71174;SDS011;58876;51.994;4.472;2022-12-13T01:15:43;914.68;;;914.68;;
71174;SDS011;58876;51.994;4.472;2022-12-13T01:18:11;857.05;;;857.05;;
71174;SDS011;58876;51.994;4.472;2022-12-13T01:20:38;770.00;;;770.00;;
71174;SDS011;58876;51.994;4.472;2022-12-13T01:23:05;741.33;;;741.33;;
71174;SDS011;58876;51.994;4.472;2022-12-13T01:25:31;740.77;;;740.77;;
71174;SDS011;58876;51.994;4.472;2022-12-13T01:27:58;802.27;;;802.27;;
71174;SDS011;58876;51.994;4.472;2022-12-13T01:30:24;748.53;;;748.53;;
71174;SDS011;58876;51.994;4.472;2022-12-13T01:32:50;818.02;;;818.02;;
71174;SDS011;58876;51.994;4.472;2022-12-13T01:35:16;904.91;;;904.91;;
71174;SDS011;58876;51.994;4.472;2022-12-13T01:37:41;767.65;;;767.65;;
71174;SDS011;58876;51.994;4.472;2022-12-13T01:40:07;640.82;;;640.82;;
71174;SDS011;58876;51.994;4.472;2022-12-13T01:42:36;498.77;;;498.77;;
71174;SDS011;58876;51.994;4.472;2022-12-13T01:47:58;546.67;;;546.67;;
71174;SDS011;58876;51.994;4.472;2022-12-13T01:50:30;633.16;;;633.16;;
71174;SDS011;58876;51.994;4.472;2022-12-13T01:53:02;617.93;;;617.93;;
71174;SDS011;58876;51.994;4.472;2022-12-13T01:55:33;709.26;;;709.26;;
71174;SDS011;58876;51.994;4.472;2022-12-13T01:58:02;641.13;;;641.13;;
71174;SDS011;58876;51.994;4.472;2022-12-13T02:00:29;414.15;;;414.15;;
71174;SDS011;58876;51.994;4.472;2022-12-13T02:02:59;362.01;;;362.01;;
71174;SDS011;58876;51.994;4.472;2022-12-13T02:05:27;544.92;;;544.92;;
71174;SDS011;58876;51.994;4.472;2022-12-13T02:08:00;561.82;;;561.82;;
71174;SDS011;58876;51.994;4.472;2022-12-13T02:10:27;384.14;;;384.14;;
71174;SDS011;58876;51.994;4.472;2022-12-13T02:12:53;651.34;;;651.34;;
71174;SDS011;58876;51.994;4.472;2022-12-13T02:15:19;669.07;;;669.07;;
71174;SDS011;58876;51.994;4.472;2022-12-13T02:17:50;508.27;;;508.27;;
71174;SDS011;58876;51.994;4.472;2022-12-13T02:28:53;633.43;;;633.43;;
71174;SDS011;58876;51.994;4.472;2022-12-13T02:31:42;503.02;;;503.02;;
71174;SDS011;58876;51.994;4.472;2022-12-13T02:34:55;467.93;;;467.93;;
71174;SDS011;58876;51.994;4.472;2022-12-13T02:37:23;400.55;;;400.55;;
71174;SDS011;58876;51.994;4.472;2022-12-13T02:40:08;367.82;;;367.82;;
71174;SDS011;58876;51.994;4.472;2022-12-13T02:43:03;292.03;;;292.03;;
71174;SDS011;58876;51.994;4.472;2022-12-13T02:45:36;265.58;;;265.58;;
71174;SDS011;58876;51.994;4.472;2022-12-13T02:48:12;279.29;;;279.29;;
71174;SDS011;58876;51.994;4.472;2022-12-13T02:50:42;396.12;;;396.12;;
71174;SDS011;58876;51.994;4.472;2022-12-13T02:53:10;388.87;;;388.87;;
71174;SDS011;58876;51.994;4.472;2022-12-13T02:55:38;553.18;;;553.18;;
71174;SDS011;58876;51.994;4.472;2022-12-13T02:58:05;684.85;;;684.85;;
71174;SDS011;58876;51.994;4.472;2022-12-13T03:00:49;713.29;;;713.29;;
71174;SDS011;58876;51.994;4.472;2022-12-13T03:03:45;716.34;;;716.34;;
71174;SDS011;58876;51.994;4.472;2022-12-13T03:06:19;730.61;;;730.61;;
71174;SDS011;58876;51.994;4.472;2022-12-13T03:09:14;608.67;;;608.67;;
71174;SDS011;58876;51.994;4.472;2022-12-13T03:15:31;475.21;;;475.21;;
71174;SDS011;58876;51.994;4.472;2022-12-13T03:18:03;421.60;;;421.60;;
71174;SDS011;58876;51.994;4.472;2022-12-13T03:21:00;443.28;;;443.28;;
71174;SDS011;58876;51.994;4.472;2022-12-13T03:23:28;441.46;;;441.46;;
71174;SDS011;58876;51.994;4.472;2022-12-13T03:25:55;439.40;;;439.40;;
71174;SDS011;58876;51.994;4.472;2022-12-13T03:28:25;458.84;;;458.84;;
71174;SDS011;58876;51.994;4.472;2022-12-13T03:30:51;439.80;;;439.80;;
71174;SDS011;58876;51.994;4.472;2022-12-13T03:33:17;441.42;;;441.42;;
71174;SDS011;58876;51.994;4.472;2022-12-13T03:35:42;496.67;;;496.67;;
71174;SDS011;58876;51.994;4.472;2022-12-13T03:38:09;482.29;;;482.29;;
71174;SDS011;58876;51.994;4.472;2022-12-13T03:40:38;483.71;;;483.71;;
71174;SDS011;58876;51.994;4.472;2022-12-13T03:43:03;558.49;;;558.49;;
71174;SDS011;58876;51.994;4.472;2022-12-13T03:45:29;603.72;;;603.72;;
71174;SDS011;58876;51.994;4.472;2022-12-13T03:47:55;561.17;;;561.17;;
71174;SDS011;58876;51.994;4.472;2022-12-13T03:50:20;585.64;;;585.64;;
71174;SDS011;58876;51.994;4.472;2022-12-13T03:52:46;540.84;;;540.84;;
71174;SDS011;58876;51.994;4.472;2022-12-13T03:55:12;517.77;;;517.77;;
71174;SDS011;58876;51.994;4.472;2022-12-13T03:57:38;383.26;;;383.26;;
71174;SDS011;58876;51.994;4.472;2022-12-13T04:00:03;281.11;;;281.11;;
71174;SDS011;58876;51.994;4.472;2022-12-13T04:02:30;292.55;;;292.55;;
71174;SDS011;58876;51.994;4.472;2022-12-13T04:04:55;282.11;;;282.11;;
71174;SDS011;58876;51.994;4.472;2022-12-13T04:07:21;283.02;;;283.02;;
71174;SDS011;58876;51.994;4.472;2022-12-13T04:09:46;380.45;;;380.45;;
71174;SDS011;58876;51.994;4.472;2022-12-13T04:12:12;379.10;;;379.10;;
71174;SDS011;58876;51.994;4.472;2022-12-13T04:14:56;397.50;;;397.50;;
71174;SDS011;58876;51.994;4.472;2022-12-13T04:17:21;360.45;;;360.45;;
71174;SDS011;58876;51.994;4.472;2022-12-13T04:19:47;213.44;;;213.44;;
71174;SDS011;58876;51.994;4.472;2022-12-13T04:22:12;183.52;;;183.52;;
71174;SDS011;58876;51.994;4.472;2022-12-13T04:24:37;218.41;;;218.41;;
71174;SDS011;58876;51.994;4.472;2022-12-13T04:27:03;272.79;;;272.79;;
71174;SDS011;58876;51.994;4.472;2022-12-13T04:29:29;259.73;;;259.73;;
71174;SDS011;58876;51.994;4.472;2022-12-13T04:31:55;328.28;;;328.28;;
71174;SDS011;58876;51.994;4.472;2022-12-13T04:34:20;282.79;;;282.79;;
71174;SDS011;58876;51.994;4.472;2022-12-13T04:36:46;262.87;;;262.87;;
71174;SDS011;58876;51.994;4.472;2022-12-13T04:39:11;298.82;;;298.82;;
71174;SDS011;58876;51.994;4.472;2022-12-13T04:41:37;285.66;;;285.66;;
71174;SDS011;58876;51.994;4.472;2022-12-13T04:44:04;350.80;;;350.80;;
71174;SDS011;58876;51.994;4.472;2022-12-13T04:46:32;379.39;;;379.39;;
71174;SDS011;58876;51.994;4.472;2022-12-13T04:48:58;314.85;;;314.85;;
71174;SDS011;58876;51.994;4.472;2022-12-13T04:51:25;335.93;;;335.93;;
71174;SDS011;58876;51.994;4.472;2022-12-13T04:53:50;345.25;;;345.25;;
71174;SDS011;58876;51.994;4.472;2022-12-13T04:56:16;178.43;;;178.43;;
71174;SDS011;58876;51.994;4.472;2022-12-13T04:58:42;165.30;;;165.30;;
71174;SDS011;58876;51.994;4.472;2022-12-13T05:01:08;233.72;;;233.72;;
71174;SDS011;58876;51.994;4.472;2022-12-13T05:03:36;177.83;;;177.83;;
71174;SDS011;58876;51.994;4.472;2022-12-13T05:06:05;197.75;;;197.75;;
71174;SDS011;58876;51.994;4.472;2022-12-13T05:08:32;348.75;;;348.75;;
71174;SDS011;58876;51.994;4.472;2022-12-13T05:10:58;429.09;;;429.09;;
71174;SDS011;58876;51.994;4.472;2022-12-13T05:13:24;376.33;;;376.33;;
71174;SDS011;58876;51.994;4.472;2022-12-13T05:15:56;315.97;;;315.97;;
71174;SDS011;58876;51.994;4.472;2022-12-13T05:18:22;312.72;;;312.72;;
71174;SDS011;58876;51.994;4.472;2022-12-13T05:20:49;363.74;;;363.74;;
71174;SDS011;58876;51.994;4.472;2022-12-13T05:23:21;365.28;;;365.28;;
71174;SDS011;58876;51.994;4.472;2022-12-13T05:25:49;418.83;;;418.83;;
71174;SDS011;58876;51.994;4.472;2022-12-13T05:28:15;392.84;;;392.84;;
71174;SDS011;58876;51.994;4.472;2022-12-13T05:30:40;333.91;;;333.91;;
71174;SDS011;58876;51.994;4.472;2022-12-13T05:33:07;325.48;;;325.48;;
71174;SDS011;58876;51.994;4.472;2022-12-13T05:35:34;297.94;;;297.94;;
71174;SDS011;58876;51.994;4.472;2022-12-13T05:37:59;299.00;;;299.00;;
71174;SDS011;58876;51.994;4.472;2022-12-13T05:40:26;286.45;;;286.45;;
71174;SDS011;58876;51.994;4.472;2022-12-13T05:42:53;212.50;;;212.50;;
71174;SDS011;58876;51.994;4.472;2022-12-13T05:45:20;236.54;;;236.54;;
71174;SDS011;58876;51.994;4.472;2022-12-13T05:47:46;222.51;;;222.51;;
71174;SDS011;58876;51.994;4.472;2022-12-13T05:50:12;220.44;;;220.44;;
71174;SDS011;58876;51.994;4.472;2022-12-13T05:52:39;308.96;;;308.96;;
71174;SDS011;58876;51.994;4.472;2022-12-13T05:55:06;276.87;;;276.87;;
71174;SDS011;58876;51.994;4.472;2022-12-13T05:57:32;214.01;;;214.01;;
71174;SDS011;58876;51.994;4.472;2022-12-13T05:59:57;247.91;;;247.91;;
71174;SDS011;58876;51.994;4.472;2022-12-13T06:02:22;231.48;;;231.48;;
71174;SDS011;58876;51.994;4.472;2022-12-13T06:04:48;103.21;;;103.21;;
71174;SDS011;58876;51.994;4.472;2022-12-13T06:07:14;84.91;;;84.91;;
71174;SDS011;58876;51.994;4.472;2022-12-13T06:09:39;91.82;;;91.82;;
71174;SDS011;58876;51.994;4.472;2022-12-13T06:12:05;112.53;;;112.53;;
71174;SDS011;58876;51.994;4.472;2022-12-13T06:14:31;149.60;;;149.60;;
71174;SDS011;58876;51.994;4.472;2022-12-13T06:16:57;158.09;;;158.09;;
71174;SDS011;58876;51.994;4.472;2022-12-13T06:19:22;166.98;;;166.98;;
71174;SDS011;58876;51.994;4.472;2022-12-13T06:21:48;276.34;;;276.34;;
71174;SDS011;58876;51.994;4.472;2022-12-13T06:24:15;327.97;;;327.97;;
71174;SDS011;58876;51.994;4.472;2022-12-13T06:26:42;370.45;;;370.45;;
71174;SDS011;58876;51.994;4.472;2022-12-13T06:29:08;326.08;;;326.08;;
71174;SDS011;58876;51.994;4.472;2022-12-13T06:31:35;283.36;;;283.36;;
71174;SDS011;58876;51.994;4.472;2022-12-13T06:34:01;283.97;;;283.97;;
71174;SDS011;58876;51.994;4.472;2022-12-13T06:36:28;351.99;;;351.99;;
71174;SDS011;58876;51.994;4.472;2022-12-13T06:38:53;349.72;;;349.72;;
71174;SDS011;58876;51.994;4.472;2022-12-13T06:41:19;388.09;;;388.09;;
71174;SDS011;58876;51.994;4.472;2022-12-13T06:43:45;370.17;;;370.17;;
71174;SDS011;58876;51.994;4.472;2022-12-13T06:46:12;360.71;;;360.71;;
71174;SDS011;58876;51.994;4.472;2022-12-13T06:48:39;411.88;;;411.88;;
71174;SDS011;58876;51.994;4.472;2022-12-13T06:51:05;433.79;;;433.79;;
71174;SDS011;58876;51.994;4.472;2022-12-13T06:53:33;474.57;;;474.57;;
71174;SDS011;58876;51.994;4.472;2022-12-13T06:56:04;372.89;;;372.89;;
71174;SDS011;58876;51.994;4.472;2022-12-13T06:58:32;319.70;;;319.70;;
71174;SDS011;58876;51.994;4.472;2022-12-13T07:01:02;404.51;;;404.51;;
71174;SDS011;58876;51.994;4.472;2022-12-13T07:03:36;442.16;;;442.16;;
71174;SDS011;58876;51.994;4.472;2022-12-13T07:06:04;371.15;;;371.15;;
71174;SDS011;58876;51.994;4.472;2022-12-13T07:08:31;363.70;;;363.70;;
71174;SDS011;58876;51.994;4.472;2022-12-13T07:10:57;347.97;;;347.97;;
71174;SDS011;58876;51.994;4.472;2022-12-13T07:13:23;355.76;;;355.76;;
71174;SDS011;58876;51.994;4.472;2022-12-13T07:15:49;306.72;;;306.72;;
71174;SDS011;58876;51.994;4.472;2022-12-13T07:18:15;380.99;;;380.99;;
71174;SDS011;58876;51.994;4.472;2022-12-13T07:20:41;472.85;;;472.85;;
71174;SDS011;58876;51.994;4.472;2022-12-13T07:23:08;494.97;;;494.97;;
71174;SDS011;58876;51.994;4.472;2022-12-13T07:25:34;552.86;;;552.86;;
71174;SDS011;58876;51.994;4.472;2022-12-13T07:28:00;398.99;;;398.99;;
71174;SDS011;58876;51.994;4.472;2022-12-13T07:30:37;438.35;;;438.35;;
71174;SDS011;58876;51.994;4.472;2022-12-13T07:33:03;433.14;;;433.14;;
71174;SDS011;58876;51.994;4.472;2022-12-13T07:35:30;331.44;;;331.44;;
71174;SDS011;58876;51.994;4.472;2022-12-13T07:37:56;195.39;;;195.39;;
71174;SDS011;58876;51.994;4.472;2022-12-13T07:40:22;133.21;;;133.21;;
71174;SDS011;58876;51.994;4.472;2022-12-13T07:42:53;113.96;;;113.96;;
71174;SDS011;58876;51.994;4.472;2022-12-13T07:45:20;124.74;;;124.74;;
71174;SDS011;58876;51.994;4.472;2022-12-13T07:47:47;132.63;;;132.63;;
71174;SDS011;58876;51.994;4.472;2022-12-13T07:50:13;217.60;;;217.60;;
71174;SDS011;58876;51.994;4.472;2022-12-13T07:52:39;248.66;;;248.66;;
71174;SDS011;58876;51.994;4.472;2022-12-13T07:55:05;257.39;;;257.39;;
71174;SDS011;58876;51.994;4.472;2022-12-13T07:57:32;209.25;;;209.25;;
71174;SDS011;58876;51.994;4.472;2022-12-13T07:59:58;222.34;;;222.34;;
71174;SDS011;58876;51.994;4.472;2022-12-13T08:02:23;331.07;;;331.07;;
71174;SDS011;58876;51.994;4.472;2022-12-13T08:04:49;388.45;;;388.45;;
71174;SDS011;58876;51.994;4.472;2022-12-13T08:07:15;417.58;;;417.58;;
71174;SDS011;58876;51.994;4.472;2022-12-13T08:09:41;321.22;;;321.22;;
71174;SDS011;58876;51.994;4.472;2022-12-13T08:12:07;351.61;;;351.61;;
71174;SDS011;58876;51.994;4.472;2022-12-13T08:14:32;363.12;;;363.12;;
71174;SDS011;58876;51.994;4.472;2022-12-13T08:16:58;404.36;;;404.36;;
71174;SDS011;58876;51.994;4.472;2022-12-13T08:19:24;470.52;;;470.52;;
71174;SDS011;58876;51.994;4.472;2022-12-13T08:21:49;596.03;;;596.03;;
71174;SDS011;58876;51.994;4.472;2022-12-13T08:24:18;612.36;;;612.36;;
71174;SDS011;58876;51.994;4.472;2022-12-13T08:26:44;679.13;;;679.13;;
71174;SDS011;58876;51.994;4.472;2022-12-13T08:29:12;778.69;;;778.69;;
71174;SDS011;58876;51.994;4.472;2022-12-13T08:31:38;981.30;;;981.30;;
71174;SDS011;58876;51.994;4.472;2022-12-13T08:34:04;1020.86;;;1020.86;;
71174;SDS011;58876;51.994;4.472;2022-12-13T08:36:29;999.44;;;999.44;;
71174;SDS011;58876;51.994;4.472;2022-12-13T08:38:55;1150.71;;;1150.71;;
71174;SDS011;58876;51.994;4.472;2022-12-13T08:41:21;1341.33;;;1341.33;;
71174;SDS011;58876;51.994;4.472;2022-12-13T08:43:47;1425.86;;;1425.86;;
71174;SDS011;58876;51.994;4.472;2022-12-13T08:46:13;1344.46;;;1344.46;;
71174;SDS011;58876;51.994;4.472;2022-12-13T08:48:38;1222.24;;;1222.24;;
71174;SDS011;58876;51.994;4.472;2022-12-13T08:51:05;1120.86;;;1120.86;;
71174;SDS011;58876;51.994;4.472;2022-12-13T08:53:33;1125.65;;;1125.65;;
71174;SDS011;58876;51.994;4.472;2022-12-13T08:56:03;1169.16;;;1169.16;;
71174;SDS011;58876;51.994;4.472;2022-12-13T08:58:30;1236.05;;;1236.05;;
71174;SDS011;58876;51.994;4.472;2022-12-13T09:00:56;1345.72;;;1345.72;;
71174;SDS011;58876;51.994;4.472;2022-12-13T09:03:22;1336.41;;;1336.41;;
71174;SDS011;58876;51.994;4.472;2022-12-13T09:05:47;1497.13;;;1497.13;;
71174;SDS011;58876;51.994;4.472;2022-12-13T09:08:13;1557.80;;;1557.80;;
71174;SDS011;58876;51.994;4.472;2022-12-13T09:10:39;1498.66;;;1498.66;;
71174;SDS011;58876;51.994;4.472;2022-12-13T09:13:04;1513.22;;;1513.22;;
71174;SDS011;58876;51.994;4.472;2022-12-13T09:15:31;1461.44;;;1461.44;;
71174;SDS011;58876;51.994;4.472;2022-12-13T09:17:57;1529.50;;;1529.50;;
71174;SDS011;58876;51.994;4.472;2022-12-13T09:20:23;1570.17;;;1570.17;;
71174;SDS011;58876;51.994;4.472;2022-12-13T09:22:49;1531.68;;;1531.68;;
71174;SDS011;58876;51.994;4.472;2022-12-13T09:25:15;1602.62;;;1602.62;;
71174;SDS011;58876;51.994;4.472;2022-12-13T09:27:41;1653.40;;;1653.40;;
71174;SDS011;58876;51.994;4.472;2022-12-13T09:30:08;1902.19;;;1902.19;;
71174;SDS011;58876;51.994;4.472;2022-12-13T09:32:37;1494.21;;;1494.21;;
71174;SDS011;58876;51.994;4.472;2022-12-13T09:35:05;1264.99;;;1264.99;;
71174;SDS011;58876;51.994;4.472;2022-12-13T09:37:30;1268.70;;;1268.70;;
71174;SDS011;58876;51.994;4.472;2022-12-13T09:39:56;1498.48;;;1498.48;;
71174;SDS011;58876;51.994;4.472;2022-12-13T09:42:22;1473.90;;;1473.90;;
71174;SDS011;58876;51.994;4.472;2022-12-13T09:44:53;1231.43;;;1231.43;;
71174;SDS011;58876;51.994;4.472;2022-12-13T09:49:55;768.94;;;768.94;;
71174;SDS011;58876;51.994;4.472;2022-12-13T09:52:24;562.04;;;562.04;;
71174;SDS011;58876;51.994;4.472;2022-12-13T09:54:53;568.28;;;568.28;;
71174;SDS011;58876;51.994;4.472;2022-12-13T09:57:25;591.46;;;591.46;;
71174;SDS011;58876;51.994;4.472;2022-12-13T09:59:53;536.01;;;536.01;;
71174;SDS011;58876;51.994;4.472;2022-12-13T10:02:23;518.68;;;518.68;;
71174;SDS011;58876;51.994;4.472;2022-12-13T10:07:38;652.06;;;652.06;;
71174;SDS011;58876;51.994;4.472;2022-12-13T10:10:04;750.50;;;750.50;;
71174;SDS011;58876;51.994;4.472;2022-12-13T10:12:30;726.78;;;726.78;;
71174;SDS011;58876;51.994;4.472;2022-12-13T10:15:00;840.98;;;840.98;;
71174;SDS011;58876;51.994;4.472;2022-12-13T10:17:30;724.49;;;724.49;;
71174;SDS011;58876;51.994;4.472;2022-12-13T10:20:00;653.31;;;653.31;;
71174;SDS011;58876;51.994;4.472;2022-12-13T10:22:27;441.63;;;441.63;;
71174;SDS011;58876;51.994;4.472;2022-12-13T10:27:35;335.89;;;335.89;;
71174;SDS011;58876;51.994;4.472;2022-12-13T10:35:28;108.54;;;108.54;;
71174;SDS011;58876;51.994;4.472;2022-12-13T10:38:00;240.13;;;240.13;;
71174;SDS011;58876;51.994;4.472;2022-12-13T10:40:46;280.20;;;280.20;;
71174;SDS011;58876;51.994;4.472;2022-12-13T10:43:18;144.21;;;144.21;;
71174;SDS011;58876;51.994;4.472;2022-12-13T10:49:11;69.26;;;69.26;;
71174;SDS011;58876;51.994;4.472;2022-12-13T10:51:15;776.30;;;776.30;;
71174;SDS011;58876;51.994;4.472;2022-12-13T10:53:48;243.94;;;243.94;;
71174;SDS011;58876;51.994;4.472;2022-12-13T10:56:17;45.41;;;45.41;;
71174;SDS011;58876;51.994;4.472;2022-12-13T10:58:45;41.11;;;41.08;;
71174;SDS011;58876;51.994;4.472;2022-12-13T11:03:59;39.01;;;38.95;;
71174;SDS011;58876;51.994;4.472;2022-12-13T11:06:43;38.29;;;38.18;;
71174;SDS011;58876;51.994;4.472;2022-12-13T11:09:14;38.31;;;38.25;;
71174;SDS011;58876;51.994;4.472;2022-12-13T11:11:46;38.37;;;38.33;;
71174;SDS011;58876;51.994;4.472;2022-12-13T11:14:18;38.52;;;38.44;;
71174;SDS011;58876;51.994;4.472;2022-12-13T11:16:48;38.02;;;37.94;;
71174;SDS011;58876;51.994;4.472;2022-12-13T11:19:21;38.86;;;38.84;;
71174;SDS011;58876;51.994;4.472;2022-12-13T11:21:58;39.82;;;39.81;;
71174;SDS011;58876;51.994;4.472;2022-12-13T11:24:32;38.72;;;38.71;;
71174;SDS011;58876;51.994;4.472;2022-12-13T11:29:49;39.31;;;39.25;;
71174;SDS011;58876;51.994;4.472;2022-12-13T11:32:52;39.71;;;39.60;;
71174;SDS011;58876;51.994;4.472;2022-12-13T11:35:40;39.55;;;39.51;;
71174;SDS011;58876;51.994;4.472;2022-12-13T11:47:11;41.33;;;41.33;;
71174;SDS011;58876;51.994;4.472;2022-12-13T11:49:44;39.13;;;39.11;;
71174;SDS011;58876;51.994;4.472;2022-12-13T11:54:53;36.65;;;36.59;;
71174;SDS011;58876;51.994;4.472;2022-12-13T12:02:57;37.95;;;37.92;;
71174;SDS011;58876;51.994;4.472;2022-12-13T12:05:32;39.08;;;39.04;;
71174;SDS011;58876;51.994;4.472;2022-12-13T12:08:21;38.07;;;38.06;;
71174;SDS011;58876;51.994;4.472;2022-12-13T12:11:00;37.98;;;37.86;;
71174;SDS011;58876;51.994;4.472;2022-12-13T12:13:36;39.47;;;39.42;;
71174;SDS011;58876;51.994;4.472;2022-12-13T12:16:13;38.29;;;38.27;;
71174;SDS011;58876;51.994;4.472;2022-12-13T12:18:49;38.26;;;38.20;;
71174;SDS011;58876;51.994;4.472;2022-12-13T12:21:32;38.45;;;38.44;;
71174;SDS011;58876;51.994;4.472;2022-12-13T12:24:06;39.33;;;39.24;;
71174;SDS011;58876;51.994;4.472;2022-12-13T12:27:04;39.81;;;39.65;;
71174;SDS011;58876;51.994;4.472;2022-12-13T12:30:14;39.04;;;38.99;;
71174;SDS011;58876;51.994;4.472;2022-12-13T12:44:16;38.20;;;38.16;;
71174;SDS011;58876;51.994;4.472;2022-12-13T12:52:47;40.31;;;40.30;;
71174;SDS011;58876;51.994;4.472;2022-12-13T12:56:11;39.62;;;39.31;;
71174;SDS011;58876;51.994;4.472;2022-12-13T13:01:31;40.63;;;40.46;;
71174;SDS011;58876;51.994;4.472;2022-12-13T13:04:13;42.03;;;41.99;;
71174;SDS011;58876;51.994;4.472;2022-12-13T13:06:44;40.36;;;40.28;;
71174;SDS011;58876;51.994;4.472;2022-12-13T13:09:42;40.94;;;40.93;;
71174;SDS011;58876;51.994;4.472;2022-12-13T13:12:09;38.74;;;38.67;;
71174;SDS011;58876;51.994;4.472;2022-12-13T13:14:36;39.98;;;39.94;;
71174;SDS011;58876;51.994;4.472;2022-12-13T13:17:46;39.17;;;39.17;;
71174;SDS011;58876;51.994;4.472;2022-12-13T13:22:44;40.04;;;40.03;;
71174;SDS011;58876;51.994;4.472;2022-12-13T13:25:30;41.70;;;41.55;;
71174;SDS011;58876;51.994;4.472;2022-12-13T13:28:04;41.41;;;41.40;;
71174;SDS011;58876;51.994;4.472;2022-12-13T13:30:57;44.18;;;44.18;;
71174;SDS011;58876;51.994;4.472;2022-12-13T13:39:37;42.96;;;42.96;;
71174;SDS011;58876;51.994;4.472;2022-12-13T13:42:17;45.49;;;45.49;;
71174;SDS011;58876;51.994;4.472;2022-12-13T14:21:41;199.13;;;199.13;;
71174;SDS011;58876;51.994;4.472;2022-12-13T14:24:29;265.50;;;265.50;;
71174;SDS011;58876;51.994;4.472;2022-12-13T14:30:17;457.97;;;457.97;;
71174;SDS011;58876;51.994;4.472;2022-12-13T14:32:46;538.77;;;538.77;;
71174;SDS011;58876;51.994;4.472;2022-12-13T14:42:58;499.58;;;499.58;;
71174;SDS011;58876;51.994;4.472;2022-12-13T14:45:25;350.88;;;350.88;;
71174;SDS011;58876;51.994;4.472;2022-12-13T14:47:56;581.66;;;581.66;;
71174;SDS011;58876;51.994;4.472;2022-12-13T14:50:25;697.14;;;697.14;;
71174;SDS011;58876;51.994;4.472;2022-12-13T14:52:52;765.76;;;765.76;;
71174;SDS011;58876;51.994;4.472;2022-12-13T14:57:52;708.86;;;708.86;;
71174;SDS011;58876;51.994;4.472;2022-12-13T15:00:27;596.22;;;596.22;;
71174;SDS011;58876;51.994;4.472;2022-12-13T15:02:57;480.88;;;480.88;;
71174;SDS011;58876;51.994;4.472;2022-12-13T15:07:52;670.77;;;670.77;;
71174;SDS011;58876;51.994;4.472;2022-12-13T15:10:20;789.66;;;789.66;;
71174;SDS011;58876;51.994;4.472;2022-12-13T15:12:49;756.02;;;756.02;;
71174;SDS011;58876;51.994;4.472;2022-12-13T15:18:03;695.89;;;695.89;;
71174;SDS011;58876;51.994;4.472;2022-12-13T15:20:42;763.07;;;763.07;;
71174;SDS011;58876;51.994;4.472;2022-12-13T15:23:18;879.16;;;879.16;;
71174;SDS011;58876;51.994;4.472;2022-12-13T15:25:57;872.48;;;872.48;;
71174;SDS011;58876;51.994;4.472;2022-12-13T15:28:29;1108.69;;;1108.69;;
71174;SDS011;58876;51.994;4.472;2022-12-13T15:30:58;1201.45;;;1201.45;;
71174;SDS011;58876;51.994;4.472;2022-12-13T15:33:26;1146.24;;;1146.24;;
71174;SDS011;58876;51.994;4.472;2022-12-13T15:36:02;1084.45;;;1084.45;;
71174;SDS011;58876;51.994;4.472;2022-12-13T15:38:33;1121.68;;;1121.68;;
71174;SDS011;58876;51.994;4.472;2022-12-13T15:41:04;1243.87;;;1243.87;;
71174;SDS011;58876;51.994;4.472;2022-12-13T15:43:36;1291.95;;;1291.95;;
71174;SDS011;58876;51.994;4.472;2022-12-13T15:46:10;1344.39;;;1344.39;;
71174;SDS011;58876;51.994;4.472;2022-12-13T15:48:39;1374.60;;;1374.60;;
71174;SDS011;58876;51.994;4.472;2022-12-13T15:51:11;1179.01;;;1179.01;;
71174;SDS011;58876;51.994;4.472;2022-12-13T15:53:42;1323.21;;;1323.21;;
71174;SDS011;58876;51.994;4.472;2022-12-13T15:56:31;1371.21;;;1371.21;;
71174;SDS011;58876;51.994;4.472;2022-12-13T15:59:23;1547.12;;;1547.12;;
71174;SDS011;58876;51.994;4.472;2022-12-13T16:01:51;1527.29;;;1527.29;;
71174;SDS011;58876;51.994;4.472;2022-12-13T16:04:27;1606.63;;;1606.63;;
71174;SDS011;58876;51.994;4.472;2022-12-13T16:06:55;1382.94;;;1382.94;;
71174;SDS011;58876;51.994;4.472;2022-12-13T16:09:23;1319.60;;;1319.60;;
71174;SDS011;58876;51.994;4.472;2022-12-13T16:11:52;1338.91;;;1338.91;;
71174;SDS011;58876;51.994;4.472;2022-12-13T16:14:24;1408.29;;;1408.29;;
71174;SDS011;58876;51.994;4.472;2022-12-13T16:17:15;1393.22;;;1393.22;;
71174;SDS011;58876;51.994;4.472;2022-12-13T16:19:48;1351.13;;;1351.13;;
71174;SDS011;58876;51.994;4.472;2022-12-13T16:22:15;1524.71;;;1524.71;;
71174;SDS011;58876;51.994;4.472;2022-12-13T16:24:41;1283.79;;;1283.79;;
71174;SDS011;58876;51.994;4.472;2022-12-13T16:27:08;1297.12;;;1297.12;;
71174;SDS011;58876;51.994;4.472;2022-12-13T16:29:36;1267.72;;;1267.72;;
71174;SDS011;58876;51.994;4.472;2022-12-13T16:32:02;1211.28;;;1211.28;;